Time;durP1;ratioP1;P1;durP2;ratioP2;P2;SDS_P1;SDS_P2;PMS_P1;PMS_P2;Temp;Humidity;BMP_temperature;BMP_pressure;BME280_temperature;BME280_humidity;BME280_pressure;Samples;Min_cycle;Max_cycle;Signal;HPM_P1;HPM_P2
2021/09/25 00:01:24;;;;;;;1.02;0.68;;;17.20;99.90;;;;;;4415597;32;20467;-64
2021/09/25 00:03:51;;;;;;;0.98;0.85;;;17.30;99.90;;;;;;4414407;32;20070;-64
2021/09/25 00:06:17;;;;;;;0.73;0.70;;;17.20;99.90;;;;;;4416487;32;20451;-64
2021/09/25 00:08:42;;;;;;;0.93;0.82;;;17.20;99.90;;;;;;4415208;32;20154;-65
2021/09/25 00:11:08;;;;;;;0.55;0.55;;;17.20;99.90;;;;;;4415548;32;20104;-64
2021/09/25 00:13:33;;;;;;;1.05;0.68;;;17.20;99.90;;;;;;4415085;32;20173;-64
2021/09/25 00:15:59;;;;;;;3.50;0.70;;;17.20;99.90;;;;;;4416224;32;20417;-64
2021/09/25 00:18:24;;;;;;;2.17;1.25;;;17.30;99.90;;;;;;4415469;32;20123;-64
2021/09/25 00:20:50;;;;;;;0.77;0.75;;;17.30;99.90;;;;;;4415489;32;20421;-64
2021/09/25 00:23:15;;;;;;;1.15;0.50;;;17.20;99.90;;;;;;4415545;32;20078;-64
2021/09/25 00:25:41;;;;;;;0.43;0.43;;;17.20;99.90;;;;;;4414439;32;20069;-65
2021/09/25 00:28:06;;;;;;;5.53;0.70;;;17.30;99.90;;;;;;4414541;32;20061;-65
2021/09/25 00:30:32;;;;;;;1.95;1.05;;;17.30;99.90;;;;;;4414440;32;20073;-64
2021/09/25 00:32:57;;;;;;;0.55;0.55;;;17.30;99.90;;;;;;4414547;32;20510;-64
2021/09/25 00:35:23;;;;;;;0.90;0.82;;;17.30;99.90;;;;;;4419829;32;20084;-64
2021/09/25 00:37:49;;;;;;;1.60;1.00;;;17.30;99.90;;;;;;4415686;32;20066;-64
2021/09/25 00:40:16;;;;;;;0.70;0.70;;;17.30;99.90;;;;;;4414367;32;20124;-64
2021/09/25 00:42:42;;;;;;;0.50;0.50;;;17.30;99.90;;;;;;4415453;32;20066;-64
2021/09/25 00:45:09;;;;;;;2.03;0.95;;;17.30;99.90;;;;;;4415819;32;20150;-64
2021/09/25 00:47:36;;;;;;;0.50;0.50;;;17.40;99.90;;;;;;4401779;32;20061;-64
2021/09/25 00:50:03;;;;;;;2.33;0.73;;;17.40;99.90;;;;;;4415070;32;20070;-65
2021/09/25 00:52:29;;;;;;;1.40;0.50;;;17.30;99.90;;;;;;4415237;32;20112;-64
2021/09/25 00:54:54;;;;;;;0.30;0.30;;;17.30;99.90;;;;;;4400791;32;20078;-64
2021/09/25 00:57:20;;;;;;;2.17;0.70;;;17.30;99.90;;;;;;4414674;32;20407;-64
2021/09/25 00:59:46;;;;;;;0.75;0.75;;;17.30;99.90;;;;;;4414754;32;20062;-64
2021/09/25 01:02:16;;;;;;;3.33;0.90;;;17.30;99.90;;;;;;4415496;32;20066;-64
2021/09/25 01:04:42;;;;;;;0.88;0.85;;;17.30;99.90;;;;;;4414757;32;20072;-65
2021/09/25 01:07:08;;;;;;;3.65;1.20;;;17.30;99.90;;;;;;4414221;32;20066;-65
2021/09/25 01:09:34;;;;;;;2.28;1.35;;;17.30;99.90;;;;;;4414120;32;20086;-64
2021/09/25 01:11:59;;;;;;;15.27;1.42;;;17.30;99.90;;;;;;4415149;32;20062;-64
2021/09/25 01:14:25;;;;;;;0.50;0.50;;;17.30;99.90;;;;;;4414857;32;20082;-64
2021/09/25 01:16:50;;;;;;;0.40;0.40;;;17.30;99.90;;;;;;4414022;32;20518;-64
2021/09/25 01:19:16;;;;;;;11.70;2.90;;;17.30;99.90;;;;;;4414993;32;20062;-65
2021/09/25 01:21:41;;;;;;;1.08;0.73;;;17.30;99.90;;;;;;4414687;32;20542;-65
2021/09/25 01:24:07;;;;;;;1.35;0.50;;;17.30;99.90;;;;;;4414405;32;20078;-65
2021/09/25 01:26:32;;;;;;;0.50;0.50;;;17.30;99.90;;;;;;4399574;32;20451;-65
2021/09/25 01:28:58;;;;;;;0.40;0.40;;;17.30;99.90;;;;;;4401183;32;20074;-65
2021/09/25 01:31:24;;;;;;;3.75;1.15;;;17.30;99.90;;;;;;4414637;32;20121;-65
2021/09/25 01:33:51;;;;;;;4.93;0.52;;;17.30;99.90;;;;;;4414186;32;20066;-65
2021/09/25 01:36:18;;;;;;;0.40;0.40;;;17.40;99.90;;;;;;4419109;32;20140;-65
2021/09/25 01:38:44;;;;;;;0.52;0.52;;;17.40;99.90;;;;;;4414357;32;20081;-65
2021/09/25 01:41:10;;;;;;;0.50;0.50;;;17.40;99.90;;;;;;4399378;32;20062;-65
2021/09/25 01:43:36;;;;;;;0.47;0.47;;;17.30;99.90;;;;;;4400439;32;20058;-64
2021/09/25 01:46:02;;;;;;;0.60;0.60;;;17.30;99.90;;;;;;4415003;32;20073;-64
2021/09/25 01:48:28;;;;;;;1.25;1.00;;;17.40;99.90;;;;;;4401304;32;20066;-64
2021/09/25 01:50:53;;;;;;;0.95;0.82;;;17.40;99.90;;;;;;4414654;32;20078;-64
2021/09/25 01:53:21;;;;;;;2.67;0.77;;;17.40;99.90;;;;;;4413028;32;20440;-64
2021/09/25 01:55:47;;;;;;;3.53;0.73;;;17.30;99.90;;;;;;4399932;32;20531;-64
2021/09/25 01:58:12;;;;;;;0.50;0.50;;;17.40;99.90;;;;;;4401241;32;20058;-64
2021/09/25 02:00:38;;;;;;;11.85;1.00;;;17.40;99.90;;;;;;4414281;32;20538;-64
2021/09/25 02:03:07;;;;;;;1.17;0.52;;;17.40;99.90;;;;;;4414488;32;20054;-64
2021/09/25 02:05:33;;;;;;;1.30;0.75;;;17.40;99.90;;;;;;4401377;32;20065;-64
2021/09/25 02:07:59;;;;;;;0.62;0.60;;;17.40;99.90;;;;;;4399702;32;20521;-64
2021/09/25 02:10:26;;;;;;;0.82;0.80;;;17.40;99.90;;;;;;4412374;32;20082;-64
2021/09/25 02:12:52;;;;;;;0.47;0.45;;;17.40;99.90;;;;;;4414386;32;20082;-64
2021/09/25 02:15:18;;;;;;;0.50;0.50;;;17.40;99.90;;;;;;4414640;32;20526;-64
2021/09/25 02:17:44;;;;;;;0.43;0.43;;;17.40;99.90;;;;;;4413963;32;20062;-64
2021/09/25 02:20:11;;;;;;;1.75;0.57;;;17.40;99.90;;;;;;4414160;32;20117;-64
2021/09/25 02:22:38;;;;;;;1.02;0.95;;;17.40;99.90;;;;;;4399143;32;20070;-64
2021/09/25 02:25:06;;;;;;;0.70;0.70;;;17.40;99.90;;;;;;4412989;32;20066;-64
2021/09/25 02:27:32;;;;;;;0.35;0.35;;;17.40;99.90;;;;;;4413309;32;20520;-64
2021/09/25 02:29:58;;;;;;;15.57;1.00;;;17.40;99.90;;;;;;4413993;32;20057;-64
2021/09/25 02:32:24;;;;;;;2.03;0.62;;;17.40;99.90;;;;;;4413200;32;20133;-64
2021/09/25 02:34:49;;;;;;;0.68;0.68;;;17.40;99.90;;;;;;4416335;32;20527;-64
2021/09/25 02:37:15;;;;;;;1.45;0.70;;;17.40;99.90;;;;;;4416567;32;20376;-64
2021/09/25 02:39:40;;;;;;;0.50;0.50;;;17.40;99.90;;;;;;4413852;32;20074;-64
2021/09/25 02:42:06;;;;;;;0.50;0.50;;;17.50;99.90;;;;;;4413219;32;20116;-64
2021/09/25 02:44:31;;;;;;;0.60;0.60;;;17.50;99.90;;;;;;4414439;32;20078;-64
2021/09/25 02:46:58;;;;;;;2.10;0.57;;;17.40;99.90;;;;;;4414538;32;20061;-65
2021/09/25 02:49:23;;;;;;;3.67;0.77;;;17.50;99.90;;;;;;4413743;32;20066;-65
2021/09/25 02:51:49;;;;;;;2.10;0.90;;;17.50;99.90;;;;;;4412471;32;20478;-65
2021/09/25 02:54:15;;;;;;;0.50;0.50;;;17.40;99.90;;;;;;4413715;32;20057;-64
2021/09/25 02:56:41;;;;;;;0.68;0.60;;;17.40;99.90;;;;;;4411662;32;20113;-64
2021/09/25 02:59:06;;;;;;;32.60;1.12;;;17.40;99.90;;;;;;4412960;32;20089;-64
2021/09/25 03:01:32;;;;;;;0.30;0.30;;;17.40;99.90;;;;;;4413847;32;20059;-64
2021/09/25 03:03:58;;;;;;;1.15;0.60;;;17.40;99.90;;;;;;4414702;32;20085;-64
2021/09/25 03:06:26;;;;;;;0.40;0.40;;;17.40;99.90;;;;;;4416074;32;20130;-64
2021/09/25 03:08:51;;;;;;;2.42;1.05;;;17.40;99.90;;;;;;4416468;32;20061;-64
2021/09/25 03:11:17;;;;;;;0.90;0.60;;;17.40;99.90;;;;;;4414900;32;20094;-64
2021/09/25 03:13:44;;;;;;;7.87;0.62;;;17.40;99.90;;;;;;4415465;32;20466;-64
2021/09/25 03:16:10;;;;;;;0.73;0.68;;;17.40;99.90;;;;;;4415651;32;20098;-64
2021/09/25 03:18:35;;;;;;;0.65;0.62;;;17.40;99.90;;;;;;4415326;32;20062;-64
2021/09/25 03:21:01;;;;;;;1.00;0.65;;;17.30;99.90;;;;;;4415464;32;20062;-64
2021/09/25 03:23:26;;;;;;;2.70;1.17;;;17.30;99.90;;;;;;4415814;32;20531;-64
2021/09/25 03:25:52;;;;;;;8.60;0.82;;;17.30;99.90;;;;;;4401737;32;20082;-64
2021/09/25 03:28:18;;;;;;;0.77;0.50;;;17.30;99.90;;;;;;4416693;32;20475;-65
2021/09/25 03:30:44;;;;;;;0.57;0.43;;;17.20;99.90;;;;;;4415080;32;20057;-65
2021/09/25 03:33:10;;;;;;;0.60;0.60;;;17.20;99.90;;;;;;4415311;32;20519;-65
2021/09/25 03:35:35;;;;;;;0.35;0.35;;;17.20;99.90;;;;;;4407639;32;20065;-65
2021/09/25 03:38:01;;;;;;;0.45;0.45;;;17.20;99.90;;;;;;4416393;32;20066;-65
2021/09/25 03:40:27;;;;;;;10.18;1.62;;;17.30;99.90;;;;;;4415233;32;20078;-65
2021/09/25 03:42:52;;;;;;;0.52;0.52;;;17.20;99.90;;;;;;4416089;32;20061;-65
2021/09/25 03:45:18;;;;;;;0.98;0.62;;;17.30;99.90;;;;;;4415430;32;20101;-64
2021/09/25 03:47:44;;;;;;;0.70;0.70;;;17.30;99.90;;;;;;4415554;32;20069;-64
2021/09/25 03:50:10;;;;;;;0.43;0.43;;;17.30;99.90;;;;;;4415249;32;20073;-64
2021/09/25 03:52:36;;;;;;;0.50;0.50;;;17.30;99.90;;;;;;4389215;32;20061;-64
2021/09/25 03:55:02;;;;;;;1.30;0.60;;;17.30;99.90;;;;;;4401592;32;20530;-64
2021/09/25 03:57:27;;;;;;;0.70;0.60;;;17.30;99.90;;;;;;4413740;32;20133;-64
2021/09/25 03:59:52;;;;;;;0.85;0.85;;;17.30;99.90;;;;;;4415848;32;20097;-64
2021/09/25 04:02:18;;;;;;;0.70;0.70;;;17.30;99.90;;;;;;4415552;32;20162;-64
2021/09/25 04:04:43;;;;;;;0.60;0.60;;;17.30;99.90;;;;;;4415964;32;20082;-64
2021/09/25 04:07:09;;;;;;;0.43;0.43;;;17.30;99.90;;;;;;4416280;32;20409;-64
2021/09/25 04:09:34;;;;;;;0.55;0.55;;;17.20;99.90;;;;;;4414270;32;20500;-65
2021/09/25 04:12:00;;;;;;;0.55;0.55;;;17.30;99.90;;;;;;4416378;32;20131;-64
2021/09/25 04:14:25;;;;;;;1.90;0.95;;;17.20;99.90;;;;;;4414290;32;20065;-64
2021/09/25 04:16:52;;;;;;;0.35;0.35;;;17.30;99.90;;;;;;4415458;32;20444;-64
2021/09/25 04:19:18;;;;;;;0.50;0.50;;;17.20;99.90;;;;;;4414429;32;20073;-64
2021/09/25 04:21:43;;;;;;;0.73;0.73;;;17.20;99.90;;;;;;4401965;32;20053;-64
2021/09/25 04:24:09;;;;;;;0.43;0.43;;;17.30;99.90;;;;;;4415786;32;20425;-65
2021/09/25 04:26:34;;;;;;;1.17;0.60;;;17.20;99.90;;;;;;4414387;32;20078;-65
2021/09/25 04:29:00;;;;;;;0.50;0.50;;;17.20;99.90;;;;;;4415359;32;20062;-65
2021/09/25 04:31:25;;;;;;;1.70;0.43;;;17.20;99.90;;;;;;4401829;32;20089;-65
2021/09/25 04:33:51;;;;;;;0.77;0.75;;;17.20;99.90;;;;;;4401234;32;20113;-65
2021/09/25 04:36:17;;;;;;;0.82;0.60;;;17.20;99.90;;;;;;4420669;32;20082;-64
2021/09/25 04:38:42;;;;;;;1.17;0.60;;;17.20;99.90;;;;;;4400662;32;20401;-64
2021/09/25 04:41:08;;;;;;;0.82;0.82;;;17.10;99.90;;;;;;4413915;32;20506;-64
2021/09/25 04:43:34;;;;;;;0.70;0.70;;;17.00;99.90;;;;;;4388537;32;20074;-64
2021/09/25 04:46:00;;;;;;;0.40;0.40;;;16.90;99.90;;;;;;4414509;32;20075;-64
2021/09/25 04:48:25;;;;;;;3.10;0.80;;;16.80;99.90;;;;;;4414830;32;20461;-64
2021/09/25 04:50:51;;;;;;;0.70;0.70;;;16.70;99.90;;;;;;4415416;32;20498;-64
2021/09/25 04:53:17;;;;;;;1.33;0.70;;;16.60;99.90;;;;;;4414700;32;20463;-64
2021/09/25 04:55:43;;;;;;;0.95;0.80;;;16.60;99.90;;;;;;4414308;32;20061;-64
2021/09/25 04:58:09;;;;;;;0.50;0.50;;;16.60;99.90;;;;;;4401975;32;20079;-64
2021/09/25 05:00:35;;;;;;;0.68;0.68;;;16.50;99.90;;;;;;4414876;32;20073;-64
2021/09/25 05:03:01;;;;;;;1.77;0.90;;;16.50;99.90;;;;;;4400895;32;20518;-64
2021/09/25 05:05:27;;;;;;;0.68;0.68;;;16.50;99.90;;;;;;4415251;32;20073;-65
2021/09/25 05:07:52;;;;;;;0.77;0.77;;;16.50;99.90;;;;;;4415032;32;20170;-65
2021/09/25 05:10:18;;;;;;;12.05;1.17;;;16.50;99.90;;;;;;4399414;32;20455;-65
2021/09/25 05:12:44;;;;;;;0.80;0.75;;;16.50;99.90;;;;;;4414355;32;20061;-65
2021/09/25 05:15:11;;;;;;;0.85;0.80;;;16.50;99.90;;;;;;4415223;32;20065;-64
2021/09/25 05:17:37;;;;;;;0.95;0.90;;;16.50;99.90;;;;;;4401035;32;20062;-64
2021/09/25 05:20:05;;;;;;;0.60;0.60;;;16.50;99.90;;;;;;4414560;32;20665;-65
2021/09/25 05:22:30;;;;;;;1.37;0.50;;;16.50;99.90;;;;;;4400356;32;20098;-65
2021/09/25 05:24:56;;;;;;;0.65;0.65;;;16.50;99.90;;;;;;4414514;32;20421;-65
2021/09/25 05:27:21;;;;;;;1.37;0.68;;;16.40;99.90;;;;;;4413788;32;20073;-65
2021/09/25 05:29:47;;;;;;;0.37;0.37;;;16.40;99.90;;;;;;4413813;32;20128;-65
2021/09/25 05:32:12;;;;;;;0.77;0.52;;;16.50;99.90;;;;;;4414742;32;20069;-65
2021/09/25 05:34:41;;;;;;;1.00;0.88;;;16.50;99.90;;;;;;4416395;32;20074;-65
2021/09/25 05:37:07;;;;;;;1.77;0.60;;;16.50;99.90;;;;;;4404624;32;20190;-65
2021/09/25 05:39:33;;;;;;;2.87;0.80;;;16.50;99.90;;;;;;4398265;32;20082;-65
2021/09/25 05:41:59;;;;;;;0.98;0.62;;;16.50;99.90;;;;;;4414452;32;20069;-64
2021/09/25 05:44:24;;;;;;;3.10;1.70;;;16.50;99.90;;;;;;4414362;32;20058;-64
2021/09/25 05:46:49;;;;;;;1.10;0.88;;;16.50;99.90;;;;;;4414142;32;20129;-64
2021/09/25 05:49:15;;;;;;;1.55;0.50;;;16.60;99.90;;;;;;4413176;32;20073;-64
2021/09/25 05:51:40;;;;;;;0.40;0.40;;;16.50;99.90;;;;;;4414120;32;20108;-64
2021/09/25 05:54:06;;;;;;;2.28;0.82;;;16.50;99.90;;;;;;4413524;32;20070;-64
2021/09/25 05:56:31;;;;;;;0.43;0.43;;;16.60;99.90;;;;;;4413237;32;20116;-64
2021/09/25 05:58:57;;;;;;;1.50;0.60;;;16.60;99.90;;;;;;4412818;32;20490;-64
2021/09/25 06:01:22;;;;;;;0.65;0.40;;;16.60;99.90;;;;;;4413413;32;20067;-65
2021/09/25 06:03:48;;;;;;;1.10;0.65;;;16.60;99.90;;;;;;4412783;32;20127;-65
2021/09/25 06:06:13;;;;;;;0.73;0.73;;;16.60;99.90;;;;;;4412657;32;20062;-65
2021/09/25 06:08:39;;;;;;;0.45;0.45;;;16.60;99.90;;;;;;4412470;32;20116;-64
2021/09/25 06:11:04;;;;;;;0.50;0.50;;;16.70;99.90;;;;;;4412284;32;20396;-64
2021/09/25 06:13:30;;;;;;;1.02;0.62;;;16.70;99.90;;;;;;4412428;32;20116;-64
2021/09/25 06:15:55;;;;;;;0.35;0.35;;;16.70;99.90;;;;;;4413590;32;20073;-64
2021/09/25 06:18:21;;;;;;;5.18;0.77;;;16.70;99.90;;;;;;4412189;32;20069;-64
2021/09/25 06:20:46;;;;;;;1.98;1.02;;;16.80;99.90;;;;;;4413459;32;20082;-64
2021/09/25 06:23:12;;;;;;;1.05;0.70;;;16.80;99.90;;;;;;4410861;32;95093;-64
2021/09/25 06:25:37;;;;;;;1.60;0.62;;;16.70;99.90;;;;;;4411084;32;20770;-64
2021/09/25 06:28:03;;;;;;;1.95;0.55;;;16.70;99.90;;;;;;4412374;32;20428;-64
2021/09/25 06:30:29;;;;;;;0.50;0.50;;;16.80;99.90;;;;;;4410721;32;20073;-64
2021/09/25 06:32:56;;;;;;;0.88;0.70;;;16.80;99.90;;;;;;4410726;32;20098;-64
2021/09/25 06:35:21;;;;;;;1.85;0.50;;;16.90;99.90;;;;;;4418524;32;20132;-64
2021/09/25 06:37:47;;;;;;;2.85;0.85;;;16.90;99.90;;;;;;4412536;32;20046;-64
2021/09/25 06:40:13;;;;;;;0.60;0.60;;;16.90;99.90;;;;;;4413152;32;20506;-64
2021/09/25 06:42:39;;;;;;;0.57;0.57;;;16.90;99.90;;;;;;4400017;32;20050;-64
2021/09/25 06:45:05;;;;;;;2.00;1.33;;;16.90;99.90;;;;;;4399260;32;20085;-64
2021/09/25 06:47:31;;;;;;;1.58;0.80;;;17.00;99.90;;;;;;4412402;32;20065;-64
2021/09/25 06:49:57;;;;;;;0.65;0.55;;;17.00;99.90;;;;;;4410762;32;20085;-64
2021/09/25 06:52:24;;;;;;;2.42;0.50;;;17.00;99.90;;;;;;4410637;32;20091;-64
2021/09/25 06:54:50;;;;;;;0.50;0.50;;;17.00;99.90;;;;;;4409244;32;20186;-64
2021/09/25 06:57:16;;;;;;;3.28;0.70;;;17.00;99.90;;;;;;4411576;32;20069;-64
2021/09/25 06:59:41;;;;;;;0.35;0.35;;;16.90;99.90;;;;;;4412678;32;20057;-64
2021/09/25 07:02:07;;;;;;;1.33;0.80;;;16.90;99.90;;;;;;4412483;32;20169;-64
2021/09/25 07:04:32;;;;;;;2.17;1.08;;;16.90;99.90;;;;;;4411879;32;20086;-64
2021/09/25 07:06:58;;;;;;;0.50;0.50;;;17.00;99.90;;;;;;4413617;32;20518;-64
2021/09/25 07:09:23;;;;;;;1.48;1.02;;;17.00;99.90;;;;;;4418054;32;20132;-64
2021/09/25 07:11:49;;;;;;;0.50;0.50;;;17.00;99.90;;;;;;4427890;32;20142;-64
2021/09/25 07:14:14;;;;;;;2.58;0.68;;;17.00;99.90;;;;;;4408789;32;20078;-64
2021/09/25 07:16:40;;;;;;;0.50;0.50;;;17.00;99.90;;;;;;4404898;32;20079;-64
2021/09/25 07:19:05;;;;;;;0.60;0.50;;;17.00;99.90;;;;;;4397460;32;20830;-64
2021/09/25 07:21:32;;;;;;;0.93;0.70;;;17.10;99.90;;;;;;4418684;32;20077;-64
2021/09/25 07:23:57;;;;;;;1.90;1.30;;;17.10;99.90;;;;;;4414342;32;20089;-64
2021/09/25 07:26:23;;;;;;;0.50;0.50;;;17.20;99.90;;;;;;4426572;32;20136;-64
2021/09/25 07:28:49;;;;;;;0.68;0.68;;;17.30;99.90;;;;;;4418370;32;20574;-64
2021/09/25 07:31:14;;;;;;;2.53;1.08;;;17.30;99.90;;;;;;4398933;32;20503;-65
2021/09/25 07:33:40;;;;;;;0.70;0.70;;;17.30;99.90;;;;;;4413751;32;20077;-64
2021/09/25 07:36:06;;;;;;;2.28;1.27;;;17.40;99.90;;;;;;4407930;32;20081;-64
2021/09/25 07:38:32;;;;;;;3.83;1.00;;;17.40;99.90;;;;;;4399461;32;20124;-64
2021/09/25 07:40:57;;;;;;;2.37;0.95;;;17.50;99.90;;;;;;4411433;32;20073;-64
2021/09/25 07:43:24;;;;;;;0.80;0.50;;;17.50;99.90;;;;;;4412836;32;20079;-65
2021/09/25 07:45:50;;;;;;;9.20;1.92;;;17.50;99.90;;;;;;4411855;32;20082;-65
2021/09/25 07:48:16;;;;;;;1.00;0.90;;;17.60;99.90;;;;;;4398945;32;20066;-65
2021/09/25 07:50:41;;;;;;;0.62;0.62;;;17.60;99.90;;;;;;4400588;32;20396;-65
2021/09/25 07:53:07;;;;;;;0.43;0.43;;;17.60;99.90;;;;;;4415427;32;20133;-65
2021/09/25 07:55:34;;;;;;;0.50;0.50;;;17.60;99.90;;;;;;4414642;32;20062;-64
2021/09/25 07:58:00;;;;;;;4.43;1.15;;;17.60;99.90;;;;;;4421345;32;20436;-64
2021/09/25 08:00:25;;;;;;;0.40;0.40;;;17.60;99.90;;;;;;4429693;32;20057;-64
2021/09/25 08:02:51;;;;;;;0.70;0.70;;;17.70;99.90;;;;;;4417528;32;20482;-64
2021/09/25 08:05:17;;;;;;;0.85;0.62;;;17.70;99.90;;;;;;4430639;32;20116;-64
2021/09/25 08:07:42;;;;;;;4.32;1.83;;;17.70;99.90;;;;;;4429812;32;20139;-64
2021/09/25 08:10:10;;;;;;;1.15;1.08;;;17.80;99.90;;;;;;4429587;32;20070;-64
2021/09/25 08:12:36;;;;;;;0.68;0.68;;;17.80;99.90;;;;;;4416192;32;20069;-65
2021/09/25 08:15:02;;;;;;;0.62;0.50;;;17.90;99.90;;;;;;4430826;32;20405;-64
2021/09/25 08:17:28;;;;;;;1.52;1.20;;;17.80;99.90;;;;;;4430663;32;20499;-64
2021/09/25 08:19:54;;;;;;;0.62;0.62;;;17.90;99.90;;;;;;4430165;32;20081;-64
2021/09/25 08:22:19;;;;;;;1.37;0.70;;;17.80;99.90;;;;;;4431123;32;20545;-64
2021/09/25 08:24:45;;;;;;;2.22;1.30;;;17.80;99.90;;;;;;4415825;32;20077;-65
2021/09/25 08:27:11;;;;;;;0.70;0.65;;;17.90;99.90;;;;;;4430146;32;20073;-64
2021/09/25 08:29:37;;;;;;;0.50;0.50;;;18.00;99.90;;;;;;4429757;32;20068;-64
2021/09/25 08:32:04;;;;;;;0.68;0.50;;;18.10;99.90;;;;;;4429616;32;20061;-64
2021/09/25 08:34:29;;;;;;;0.43;0.40;;;18.10;99.90;;;;;;4416234;32;20064;-64
2021/09/25 08:36:55;;;;;;;0.68;0.65;;;18.20;99.90;;;;;;4405103;32;20069;-64
2021/09/25 08:39:21;;;;;;;0.52;0.52;;;18.10;99.90;;;;;;4399721;32;20079;-64
2021/09/25 08:41:47;;;;;;;1.58;0.70;;;18.10;99.90;;;;;;4399555;32;20448;-64
2021/09/25 08:44:12;;;;;;;0.40;0.40;;;18.10;99.90;;;;;;4399319;32;20061;-64
2021/09/25 08:46:38;;;;;;;0.85;0.85;;;18.20;99.90;;;;;;4400241;32;20514;-64
2021/09/25 08:49:04;;;;;;;0.77;0.73;;;18.20;99.90;;;;;;4399620;32;20110;-64
2021/09/25 08:51:30;;;;;;;0.70;0.70;;;18.10;99.90;;;;;;4399256;32;20094;-64
2021/09/25 08:53:56;;;;;;;0.40;0.40;;;18.10;99.90;;;;;;4400044;32;20459;-64
2021/09/25 08:56:21;;;;;;;0.75;0.75;;;18.10;99.90;;;;;;4384972;32;20495;-64
2021/09/25 08:58:48;;;;;;;0.77;0.77;;;18.10;99.90;;;;;;4420580;32;20069;-64
2021/09/25 09:01:19;;;;;;;0.50;0.50;;;18.10;99.90;;;;;;4429274;32;20085;-64
2021/09/25 09:03:46;;;;;;;0.70;0.70;;;18.20;99.90;;;;;;4430337;32;20061;-65
2021/09/25 09:06:17;;;;;;;0.40;0.40;;;18.20;99.90;;;;;;4415332;32;20081;-64
2021/09/25 09:08:45;;;;;;;5.05;1.62;;;18.20;99.90;;;;;;4416285;32;20123;-64
2021/09/25 09:11:10;;;;;;;1.23;0.77;;;18.20;99.90;;;;;;4416175;32;20065;-64
2021/09/25 09:13:39;;;;;;;0.73;0.70;;;18.10;99.90;;;;;;4415124;32;20164;-64
2021/09/25 09:16:06;;;;;;;14.40;3.12;;;18.10;99.90;;;;;;4430014;32;20062;-65
2021/09/25 09:18:35;;;;;;;0.52;0.50;;;18.10;99.90;;;;;;4415281;32;20094;-65
2021/09/25 09:21:18;;;;;;;0.43;0.43;;;18.10;99.90;;;;;;4430085;32;20065;-65
2021/09/25 09:23:51;;;;;;;0.60;0.60;;;18.10;99.90;;;;;;4430138;32;20085;-65
2021/09/25 09:26:21;;;;;;;0.98;0.80;;;18.10;99.90;;;;;;4427770;32;20066;-65
2021/09/25 09:28:48;;;;;;;0.47;0.47;;;18.10;99.90;;;;;;4429150;32;20061;-65
2021/09/25 09:31:15;;;;;;;0.75;0.60;;;18.10;99.90;;;;;;4402905;32;20081;-64
2021/09/25 09:33:49;;;;;;;0.70;0.70;;;18.10;99.90;;;;;;4424834;32;20121;-64
2021/09/25 09:36:20;;;;;;;1.20;0.75;;;18.10;99.90;;;;;;4405109;32;20408;-64
2021/09/25 09:38:53;;;;;;;0.70;0.70;;;18.10;99.90;;;;;;4413123;32;20488;-64
2021/09/25 09:41:22;;;;;;;1.35;1.00;;;18.10;99.90;;;;;;4389080;32;20062;-64
2021/09/25 09:43:49;;;;;;;1.42;1.08;;;18.20;99.90;;;;;;4414444;32;20085;-64
2021/09/25 09:46:15;;;;;;;0.75;0.65;;;18.10;99.90;;;;;;4414295;32;20428;-64
2021/09/25 09:48:42;;;;;;;1.30;0.77;;;18.10;99.90;;;;;;4414093;32;20074;-64
2021/09/25 09:51:09;;;;;;;0.43;0.43;;;18.10;99.90;;;;;;4399952;32;20120;-64
2021/09/25 09:53:45;;;;;;;0.90;0.55;;;18.10;99.90;;;;;;4413233;32;20069;-64
2021/09/25 09:56:20;;;;;;;0.88;0.60;;;18.10;99.90;;;;;;4398170;32;20150;-65
2021/09/25 09:58:56;;;;;;;1.25;0.65;;;18.10;99.90;;;;;;4424222;32;20172;-65
2021/09/25 10:01:22;;;;;;;0.30;0.30;;;18.10;99.90;;;;;;4429028;32;20085;-65
2021/09/25 10:03:48;;;;;;;0.65;0.65;;;18.20;99.90;;;;;;4428781;32;20150;-65
2021/09/25 10:06:13;;;;;;;1.02;0.55;;;18.20;99.90;;;;;;4428711;32;20507;-65
2021/09/25 10:08:39;;;;;;;1.45;0.93;;;18.20;99.90;;;;;;4429428;32;20486;-65
2021/09/25 10:11:05;;;;;;;0.55;0.55;;;18.30;99.90;;;;;;4428959;32;20066;-65
2021/09/25 10:13:32;;;;;;;1.33;0.80;;;18.30;99.90;;;;;;4429070;32;20385;-65
2021/09/25 10:15:58;;;;;;;0.30;0.30;;;18.30;99.90;;;;;;4428383;32;20115;-65
2021/09/25 10:18:24;;;;;;;0.60;0.60;;;18.30;99.90;;;;;;4414645;32;20061;-65
2021/09/25 10:20:50;;;;;;;1.50;0.55;;;18.30;99.90;;;;;;4428283;32;20519;-65
2021/09/25 10:23:16;;;;;;;0.88;0.73;;;18.40;99.90;;;;;;4427866;32;20098;-65
2021/09/25 10:25:42;;;;;;;0.40;0.40;;;18.50;99.90;;;;;;4427318;32;20070;-65
2021/09/25 10:28:29;;;;;;;0.70;0.70;;;18.50;99.90;;;;;;4428600;32;20061;-65
2021/09/25 10:30:55;;;;;;;0.93;0.68;;;18.50;99.90;;;;;;4417004;32;20093;-64
2021/09/25 10:33:22;;;;;;;0.50;0.50;;;18.40;99.90;;;;;;4428209;32;20438;-65
2021/09/25 10:35:49;;;;;;;2.50;0.88;;;18.50;99.90;;;;;;4417458;32;20086;-65
2021/09/25 10:38:31;;;;;;;0.60;0.60;;;18.50;99.90;;;;;;4398960;32;20058;-64
2021/09/25 10:41:13;;;;;;;0.77;0.68;;;18.60;99.90;;;;;;4397906;32;20073;-64
2021/09/25 10:43:42;;;;;;;0.30;0.30;;;18.70;99.90;;;;;;4385888;32;20066;-65
2021/09/25 10:46:10;;;;;;;0.40;0.40;;;18.80;99.90;;;;;;4399387;32;20547;-65
2021/09/25 10:48:46;;;;;;;1.35;0.90;;;18.90;99.90;;;;;;4398300;32;20500;-65
2021/09/25 10:51:15;;;;;;;0.88;0.62;;;19.00;99.90;;;;;;4385804;32;20073;-65
2021/09/25 10:53:43;;;;;;;0.45;0.45;;;19.00;99.90;;;;;;4398592;32;20116;-64
2021/09/25 10:56:26;;;;;;;1.15;0.77;;;19.00;99.90;;;;;;4396962;32;20070;-64
2021/09/25 10:58:59;;;;;;;0.32;0.32;;;19.10;99.90;;;;;;4406151;32;20074;-65
2021/09/25 11:01:32;;;;;;;0.60;0.60;;;19.00;99.90;;;;;;4428965;32;20073;-65
2021/09/25 11:04:04;;;;;;;0.40;0.40;;;19.00;99.90;;;;;;4428619;32;20559;-65
2021/09/25 11:06:32;;;;;;;1.65;0.65;;;19.00;99.90;;;;;;4416568;32;20074;-64
2021/09/25 11:09:22;;;;;;;0.30;0.30;;;19.00;99.90;;;;;;4428398;32;20078;-64
2021/09/25 11:11:51;;;;;;;0.75;0.50;;;18.90;99.90;;;;;;4417460;32;20097;-64
2021/09/25 11:14:28;;;;;;;0.50;0.50;;;18.80;99.90;;;;;;4428416;32;20084;-63
2021/09/25 11:17:16;;;;;;;0.50;0.50;;;18.80;99.90;;;;;;4428519;32;20066;-63
2021/09/25 11:20:01;;;;;;;0.88;0.57;;;18.90;99.90;;;;;;4416065;32;20081;-63
2021/09/25 11:22:45;;;;;;;0.62;0.50;;;19.20;99.90;;;;;;4428636;32;20065;-63
2021/09/25 11:25:13;;;;;;;0.50;0.50;;;19.60;99.90;;;;;;4429452;32;20525;-63
2021/09/25 11:27:49;;;;;;;7.68;0.77;;;19.90;99.90;;;;;;4430945;32;20085;-63
2021/09/25 11:30:18;;;;;;;0.30;0.30;;;20.00;99.90;;;;;;4416350;32;20129;-63
2021/09/25 11:32:51;;;;;;;0.75;0.57;;;20.10;99.90;;;;;;4431364;32;20096;-63
2021/09/25 11:35:21;;;;;;;0.50;0.50;;;20.00;99.90;;;;;;4412105;32;20204;-63
2021/09/25 11:37:49;;;;;;;0.65;0.60;;;19.90;99.90;;;;;;4387024;32;20165;-63
2021/09/25 11:40:15;;;;;;;0.90;0.70;;;20.00;99.90;;;;;;4400031;32;20058;-63
2021/09/25 11:42:40;;;;;;;0.65;0.65;;;20.00;99.90;;;;;;4399658;32;20125;-63
2021/09/25 11:45:09;;;;;;;2.62;0.57;;;20.00;99.90;;;;;;4400719;32;20114;-64
2021/09/25 11:47:46;;;;;;;0.40;0.40;;;20.10;99.90;;;;;;4399728;32;20073;-63
2021/09/25 11:50:32;;;;;;;0.50;0.50;;;20.20;99.90;;;;;;4400438;32;20086;-63
2021/09/25 11:53:01;;;;;;;0.47;0.47;;;20.30;99.90;;;;;;4398881;32;20153;-64
2021/09/25 11:55:28;;;;;;;1.30;0.73;;;20.30;99.90;;;;;;4399434;32;20066;-63
2021/09/25 11:57:58;;;;;;;0.80;0.80;;;20.40;99.90;;;;;;4396491;32;20424;-63
2021/09/25 12:00:27;;;;;;;0.88;0.80;;;20.60;99.90;;;;;;4403958;32;20188;-64
2021/09/25 12:02:54;;;;;;;0.80;0.45;;;20.70;99.90;;;;;;4405197;32;20065;-63
2021/09/25 12:05:32;;;;;;;0.50;0.50;;;20.80;99.90;;;;;;4431651;32;20064;-64
2021/09/25 12:08:00;;;;;;;0.37;0.37;;;20.60;99.90;;;;;;4417881;32;20112;-64
2021/09/25 12:10:30;;;;;;;0.35;0.35;;;20.50;99.90;;;;;;4416468;32;20131;-64
2021/09/25 12:13:02;;;;;;;0.37;0.37;;;20.50;99.90;;;;;;4416963;32;20526;-64
2021/09/25 12:15:30;;;;;;;0.40;0.40;;;20.50;99.90;;;;;;4429852;32;20121;-63
2021/09/25 12:18:16;;;;;;;0.65;0.65;;;20.40;99.90;;;;;;4429987;32;20119;-63
2021/09/25 12:20:45;;;;;;;0.85;0.40;;;20.40;99.90;;;;;;4431152;32;20074;-64
2021/09/25 12:23:12;;;;;;;0.35;0.32;;;20.30;99.90;;;;;;4430862;32;20081;-64
2021/09/25 12:25:40;;;;;;;0.30;0.30;;;20.30;99.90;;;;;;4416293;32;20489;-64
2021/09/25 12:28:23;;;;;;;0.30;0.22;;;20.50;99.90;;;;;;4430137;32;20193;-64
2021/09/25 12:30:49;;;;;;;0.30;0.30;;;20.60;99.90;;;;;;4416207;32;20145;-64
2021/09/25 12:33:17;;;;;;;1.65;0.70;;;20.70;99.90;;;;;;4416231;32;20085;-64
2021/09/25 12:35:53;;;;;;;0.30;0.30;;;20.60;99.90;;;;;;4419511;32;20089;-64
2021/09/25 12:38:19;;;;;;;0.35;0.35;;;20.50;99.90;;;;;;4401330;32;20087;-64
2021/09/25 12:40:45;;;;;;;0.30;0.30;;;20.50;99.90;;;;;;4386179;32;20073;-64
2021/09/25 12:43:10;;;;;;;2.20;0.35;;;20.50;99.90;;;;;;4400321;32;20132;-64
2021/09/25 12:45:36;;;;;;;0.43;0.43;;;20.40;99.90;;;;;;4399688;32;20066;-64